sensor_id;sensor_type;location;lat;lon;timestamp;pressure;altitude;pressure_sealevel;temperature
80422;BMP280;69763;50.182;9.144;2023-07-22T00:01:32;99936.56;;;10.87
80422;BMP280;69763;50.182;9.144;2023-07-22T00:03:57;99945.97;;;10.86
80422;BMP280;69763;50.182;9.144;2023-07-22T00:06:25;99944.03;;;10.81
80422;BMP280;69763;50.182;9.144;2023-07-22T00:08:51;99950.28;;;10.76
80422;BMP280;69763;50.182;9.144;2023-07-22T00:11:16;99958.72;;;10.72
80422;BMP280;69763;50.182;9.144;2023-07-22T00:13:41;99951.38;;;10.86
80422;BMP280;69763;50.182;9.144;2023-07-22T00:16:07;99950.47;;;10.97
80422;BMP280;69763;50.182;9.144;2023-07-22T00:18:32;99956.22;;;10.93
80422;BMP280;69763;50.182;9.144;2023-07-22T00:20:58;99956.16;;;10.80
80422;BMP280;69763;50.182;9.144;2023-07-22T00:23:25;99957.47;;;10.73
80422;BMP280;69763;50.182;9.144;2023-07-22T00:25:50;99948.06;;;10.74
80422;BMP280;69763;50.182;9.144;2023-07-22T00:28:16;99952.25;;;10.75
80422;BMP280;69763;50.182;9.144;2023-07-22T00:30:41;99958.19;;;10.74
80422;BMP280;69763;50.182;9.144;2023-07-22T00:33:07;99952.72;;;10.79
80422;BMP280;69763;50.182;9.144;2023-07-22T00:35:33;99956.88;;;10.80
80422;BMP280;69763;50.182;9.144;2023-07-22T00:37:58;99952.47;;;10.77
80422;BMP280;69763;50.182;9.144;2023-07-22T00:40:25;99952.06;;;10.73
80422;BMP280;69763;50.182;9.144;2023-07-22T00:42:50;99955.47;;;10.74
80422;BMP280;69763;50.182;9.144;2023-07-22T00:45:16;99956.53;;;10.71
80422;BMP280;69763;50.182;9.144;2023-07-22T00:47:42;99945.03;;;10.65
80422;BMP280;69763;50.182;9.144;2023-07-22T00:50:08;99953.00;;;10.57
80422;BMP280;69763;50.182;9.144;2023-07-22T00:52:33;99950.56;;;10.54
80422;BMP280;69763;50.182;9.144;2023-07-22T00:54:59;99944.66;;;10.55
80422;BMP280;69763;50.182;9.144;2023-07-22T00:57:26;99948.19;;;10.50
80422;BMP280;69763;50.182;9.144;2023-07-22T00:59:51;99931.91;;;10.50
80422;BMP280;69763;50.182;9.144;2023-07-22T01:02:17;99944.72;;;10.49
80422;BMP280;69763;50.182;9.144;2023-07-22T01:04:43;99931.84;;;10.56
80422;BMP280;69763;50.182;9.144;2023-07-22T01:07:09;99941.97;;;10.36
80422;BMP280;69763;50.182;9.144;2023-07-22T01:09:35;99935.66;;;10.28
80422;BMP280;69763;50.182;9.144;2023-07-22T01:12:01;99936.75;;;10.20
80422;BMP280;69763;50.182;9.144;2023-07-22T01:14:27;99947.59;;;10.20
80422;BMP280;69763;50.182;9.144;2023-07-22T01:16:53;99944.88;;;10.20
80422;BMP280;69763;50.182;9.144;2023-07-22T01:19:19;99938.38;;;10.10
80422;BMP280;69763;50.182;9.144;2023-07-22T01:21:45;99932.94;;;10.10
80422;BMP280;69763;50.182;9.144;2023-07-22T01:24:13;99940.41;;;10.22
80422;BMP280;69763;50.182;9.144;2023-07-22T01:26:39;99936.31;;;10.16
80422;BMP280;69763;50.182;9.144;2023-07-22T01:29:05;99941.97;;;10.18
80422;BMP280;69763;50.182;9.144;2023-07-22T01:31:30;99939.44;;;10.01
80422;BMP280;69763;50.182;9.144;2023-07-22T01:33:55;99938.34;;;9.91
80422;BMP280;69763;50.182;9.144;2023-07-22T01:36:21;99943.38;;;9.81
80422;BMP280;69763;50.182;9.144;2023-07-22T01:38:46;99940.50;;;9.74
80422;BMP280;69763;50.182;9.144;2023-07-22T01:41:13;99944.03;;;9.63
80422;BMP280;69763;50.182;9.144;2023-07-22T01:43:38;99947.25;;;9.61
80422;BMP280;69763;50.182;9.144;2023-07-22T01:46:04;99942.72;;;9.70
80422;BMP280;69763;50.182;9.144;2023-07-22T01:48:29;99940.09;;;9.64
80422;BMP280;69763;50.182;9.144;2023-07-22T01:50:54;99945.75;;;9.60
80422;BMP280;69763;50.182;9.144;2023-07-22T01:53:20;99944.59;;;9.56
80422;BMP280;69763;50.182;9.144;2023-07-22T01:55:45;99955.47;;;9.50
80422;BMP280;69763;50.182;9.144;2023-07-22T01:58:12;99947.34;;;9.50
80422;BMP280;69763;50.182;9.144;2023-07-22T02:00:38;99948.34;;;9.47
80422;BMP280;69763;50.182;9.144;2023-07-22T02:03:03;99949.84;;;9.73
80422;BMP280;69763;50.182;9.144;2023-07-22T02:05:28;99953.84;;;9.90
80422;BMP280;69763;50.182;9.144;2023-07-22T02:07:54;99945.88;;;9.98
80422;BMP280;69763;50.182;9.144;2023-07-22T02:10:19;99949.56;;;9.76
80422;BMP280;69763;50.182;9.144;2023-07-22T02:12:44;99955.81;;;9.65
80422;BMP280;69763;50.182;9.144;2023-07-22T02:15:11;99951.22;;;9.55
80422;BMP280;69763;50.182;9.144;2023-07-22T02:17:36;99954.63;;;9.37
80422;BMP280;69763;50.182;9.144;2023-07-22T02:20:03;99954.00;;;9.19
80422;BMP280;69763;50.182;9.144;2023-07-22T02:22:28;99954.94;;;9.27
80422;BMP280;69763;50.182;9.144;2023-07-22T02:24:54;99960.38;;;9.52
80422;BMP280;69763;50.182;9.144;2023-07-22T02:27:19;99951.88;;;9.66
80422;BMP280;69763;50.182;9.144;2023-07-22T02:29:44;99962.47;;;9.64
80422;BMP280;69763;50.182;9.144;2023-07-22T02:32:11;99957.44;;;9.50
80422;BMP280;69763;50.182;9.144;2023-07-22T02:34:36;99952.88;;;9.63
80422;BMP280;69763;50.182;9.144;2023-07-22T02:37:02;99962.41;;;9.70
80422;BMP280;69763;50.182;9.144;2023-07-22T02:39:27;99953.34;;;9.68
80422;BMP280;69763;50.182;9.144;2023-07-22T02:41:53;99949.13;;;9.72
80422;BMP280;69763;50.182;9.144;2023-07-22T02:44:18;99951.81;;;9.72
80422;BMP280;69763;50.182;9.144;2023-07-22T02:46:43;99944.16;;;9.52
80422;BMP280;69763;50.182;9.144;2023-07-22T02:49:10;99950.59;;;9.43
80422;BMP280;69763;50.182;9.144;2023-07-22T02:51:35;99940.72;;;9.46
80422;BMP280;69763;50.182;9.144;2023-07-22T02:54:01;99942.19;;;9.52
80422;BMP280;69763;50.182;9.144;2023-07-22T02:56:26;99940.41;;;9.55
80422;BMP280;69763;50.182;9.144;2023-07-22T02:58:52;99946.50;;;9.61
80422;BMP280;69763;50.182;9.144;2023-07-22T03:01:17;99937.25;;;9.51
80422;BMP280;69763;50.182;9.144;2023-07-22T03:03:42;99937.38;;;9.40
80422;BMP280;69763;50.182;9.144;2023-07-22T03:06:09;99938.75;;;9.22
80422;BMP280;69763;50.182;9.144;2023-07-22T03:08:34;99948.47;;;9.06
80422;BMP280;69763;50.182;9.144;2023-07-22T03:11:00;99950.72;;;8.97
80422;BMP280;69763;50.182;9.144;2023-07-22T03:13:25;99950.09;;;9.15
80422;BMP280;69763;50.182;9.144;2023-07-22T03:15:51;99949.59;;;9.22
80422;BMP280;69763;50.182;9.144;2023-07-22T03:18:16;99962.19;;;9.08
80422;BMP280;69763;50.182;9.144;2023-07-22T03:20:41;99960.16;;;8.90
80422;BMP280;69763;50.182;9.144;2023-07-22T03:23:08;99970.03;;;8.82
80422;BMP280;69763;50.182;9.144;2023-07-22T03:25:34;99968.34;;;8.73
80422;BMP280;69763;50.182;9.144;2023-07-22T03:28:02;99958.31;;;8.63
80422;BMP280;69763;50.182;9.144;2023-07-22T03:30:28;99965.72;;;8.51
80422;BMP280;69763;50.182;9.144;2023-07-22T03:32:53;99964.00;;;8.54
80422;BMP280;69763;50.182;9.144;2023-07-22T03:35:19;99964.50;;;8.58
80422;BMP280;69763;50.182;9.144;2023-07-22T03:37:44;99967.19;;;8.52
80422;BMP280;69763;50.182;9.144;2023-07-22T03:40:11;99965.50;;;8.49
80422;BMP280;69763;50.182;9.144;2023-07-22T03:42:37;99970.91;;;8.49
80422;BMP280;69763;50.182;9.144;2023-07-22T03:45:02;99966.97;;;8.50
80422;BMP280;69763;50.182;9.144;2023-07-22T03:47:28;99972.38;;;8.50
80422;BMP280;69763;50.182;9.144;2023-07-22T03:49:53;99969.44;;;8.48
80422;BMP280;69763;50.182;9.144;2023-07-22T03:52:19;99976.03;;;8.53
80422;BMP280;69763;50.182;9.144;2023-07-22T03:54:44;99970.38;;;8.56
80422;BMP280;69763;50.182;9.144;2023-07-22T03:57:11;99971.34;;;8.59
80422;BMP280;69763;50.182;9.144;2023-07-22T03:59:36;99977.22;;;8.63
80422;BMP280;69763;50.182;9.144;2023-07-22T04:02:02;99971.06;;;8.68
80422;BMP280;69763;50.182;9.144;2023-07-22T04:04:27;99976.66;;;8.75
80422;BMP280;69763;50.182;9.144;2023-07-22T04:06:52;99966.59;;;8.76
80422;BMP280;69763;50.182;9.144;2023-07-22T04:09:18;99970.75;;;8.77
80422;BMP280;69763;50.182;9.144;2023-07-22T04:11:43;99967.78;;;8.86
80422;BMP280;69763;50.182;9.144;2023-07-22T04:14:10;99971.53;;;9.07
80422;BMP280;69763;50.182;9.144;2023-07-22T04:16:35;99969.50;;;9.19
80422;BMP280;69763;50.182;9.144;2023-07-22T04:19:00;99962.88;;;9.20
80422;BMP280;69763;50.182;9.144;2023-07-22T04:21:26;99969.50;;;9.19
80422;BMP280;69763;50.182;9.144;2023-07-22T04:23:51;99967.03;;;9.21
80422;BMP280;69763;50.182;9.144;2023-07-22T04:26:16;99967.22;;;9.29
80422;BMP280;69763;50.182;9.144;2023-07-22T04:28:42;99965.63;;;9.44
80422;BMP280;69763;50.182;9.144;2023-07-22T04:31:08;99962.00;;;9.60
80422;BMP280;69763;50.182;9.144;2023-07-22T04:33:34;99961.91;;;9.72
80422;BMP280;69763;50.182;9.144;2023-07-22T04:35:59;99963.78;;;9.82
80422;BMP280;69763;50.182;9.144;2023-07-22T04:38:25;99975.75;;;9.92
80422;BMP280;69763;50.182;9.144;2023-07-22T04:40:50;99972.66;;;10.01
80422;BMP280;69763;50.182;9.144;2023-07-22T04:43:16;99976.47;;;10.12
80422;BMP280;69763;50.182;9.144;2023-07-22T04:45:41;99980.81;;;10.20
80422;BMP280;69763;50.182;9.144;2023-07-22T04:48:08;99974.56;;;10.31
80422;BMP280;69763;50.182;9.144;2023-07-22T04:50:33;99976.91;;;10.40
80422;BMP280;69763;50.182;9.144;2023-07-22T04:52:59;99975.03;;;10.48
80422;BMP280;69763;50.182;9.144;2023-07-22T04:55:24;99981.34;;;10.56
80422;BMP280;69763;50.182;9.144;2023-07-22T04:57:50;99982.47;;;10.66
80422;BMP280;69763;50.182;9.144;2023-07-22T05:00:15;99988.47;;;10.78
80422;BMP280;69763;50.182;9.144;2023-07-22T05:02:41;99984.56;;;10.92
80422;BMP280;69763;50.182;9.144;2023-07-22T05:05:08;99979.47;;;11.02
80422;BMP280;69763;50.182;9.144;2023-07-22T05:07:33;99990.31;;;11.02
80422;BMP280;69763;50.182;9.144;2023-07-22T05:09:59;99981.28;;;11.12
80422;BMP280;69763;50.182;9.144;2023-07-22T05:12:24;99989.97;;;11.24
80422;BMP280;69763;50.182;9.144;2023-07-22T05:14:49;99991.59;;;11.33
80422;BMP280;69763;50.182;9.144;2023-07-22T05:17:15;99992.53;;;11.48
80422;BMP280;69763;50.182;9.144;2023-07-22T05:19:40;99997.44;;;11.63
80422;BMP280;69763;50.182;9.144;2023-07-22T05:22:07;99997.16;;;11.80
80422;BMP280;69763;50.182;9.144;2023-07-22T05:24:32;100003.66;;;11.90
80422;BMP280;69763;50.182;9.144;2023-07-22T05:26:58;99999.56;;;11.96
80422;BMP280;69763;50.182;9.144;2023-07-22T05:29:23;99993.28;;;12.01
80422;BMP280;69763;50.182;9.144;2023-07-22T05:31:48;99994.41;;;12.06
80422;BMP280;69763;50.182;9.144;2023-07-22T05:34:14;100002.56;;;12.06
80422;BMP280;69763;50.182;9.144;2023-07-22T05:36:39;99996.63;;;12.07
80422;BMP280;69763;50.182;9.144;2023-07-22T05:39:06;100002.78;;;12.08
80422;BMP280;69763;50.182;9.144;2023-07-22T05:41:32;99992.84;;;12.10
80422;BMP280;69763;50.182;9.144;2023-07-22T05:43:58;99993.97;;;12.15
80422;BMP280;69763;50.182;9.144;2023-07-22T05:46:23;99994.81;;;12.10
80422;BMP280;69763;50.182;9.144;2023-07-22T05:48:48;99993.25;;;12.14
80422;BMP280;69763;50.182;9.144;2023-07-22T05:51:14;99995.25;;;12.14
80422;BMP280;69763;50.182;9.144;2023-07-22T05:53:39;99989.09;;;12.13
80422;BMP280;69763;50.182;9.144;2023-07-22T05:56:06;99983.13;;;12.15
80422;BMP280;69763;50.182;9.144;2023-07-22T05:58:31;99990.84;;;12.11
80422;BMP280;69763;50.182;9.144;2023-07-22T06:00:57;99990.13;;;12.10
80422;BMP280;69763;50.182;9.144;2023-07-22T06:03:22;99982.69;;;12.24
80422;BMP280;69763;50.182;9.144;2023-07-22T06:05:47;99989.59;;;12.38
80422;BMP280;69763;50.182;9.144;2023-07-22T06:08:13;99988.19;;;12.79
80422;BMP280;69763;50.182;9.144;2023-07-22T06:10:39;99997.50;;;13.32
80422;BMP280;69763;50.182;9.144;2023-07-22T06:13:06;99998.22;;;13.90
80422;BMP280;69763;50.182;9.144;2023-07-22T06:15:32;100002.28;;;14.70
80422;BMP280;69763;50.182;9.144;2023-07-22T06:17:58;100012.25;;;15.58
80422;BMP280;69763;50.182;9.144;2023-07-22T06:20:23;100010.22;;;16.46
80422;BMP280;69763;50.182;9.144;2023-07-22T06:22:48;100009.38;;;17.45
80422;BMP280;69763;50.182;9.144;2023-07-22T06:25:14;100002.97;;;18.30
80422;BMP280;69763;50.182;9.144;2023-07-22T06:27:39;99998.81;;;19.71
80422;BMP280;69763;50.182;9.144;2023-07-22T06:30:08;100008.25;;;20.70
80422;BMP280;69763;50.182;9.144;2023-07-22T06:32:35;100006.28;;;21.81
80422;BMP280;69763;50.182;9.144;2023-07-22T06:35:00;99997.75;;;23.59
80422;BMP280;69763;50.182;9.144;2023-07-22T06:37:26;99997.00;;;25.12
80422;BMP280;69763;50.182;9.144;2023-07-22T06:39:51;100003.75;;;26.19
80422;BMP280;69763;50.182;9.144;2023-07-22T06:42:16;99997.47;;;27.07
80422;BMP280;69763;50.182;9.144;2023-07-22T06:44:42;100000.59;;;27.34
80422;BMP280;69763;50.182;9.144;2023-07-22T06:47:09;100007.34;;;28.51
80422;BMP280;69763;50.182;9.144;2023-07-22T06:49:35;100006.28;;;29.61
80422;BMP280;69763;50.182;9.144;2023-07-22T06:52:00;100008.84;;;29.51
80422;BMP280;69763;50.182;9.144;2023-07-22T06:54:25;100006.97;;;29.60
80422;BMP280;69763;50.182;9.144;2023-07-22T06:56:51;100000.91;;;29.95
80422;BMP280;69763;50.182;9.144;2023-07-22T06:59:16;100003.06;;;29.71
80422;BMP280;69763;50.182;9.144;2023-07-22T07:01:41;100006.97;;;29.60
80422;BMP280;69763;50.182;9.144;2023-07-22T07:04:08;100004.00;;;29.79
80422;BMP280;69763;50.182;9.144;2023-07-22T07:06:34;100009.75;;;30.45
80422;BMP280;69763;50.182;9.144;2023-07-22T07:08:59;100003.94;;;30.35
80422;BMP280;69763;50.182;9.144;2023-07-22T07:11:24;99996.66;;;29.66
80422;BMP280;69763;50.182;9.144;2023-07-22T07:13:50;100002.63;;;27.14
80422;BMP280;69763;50.182;9.144;2023-07-22T07:16:22;100007.06;;;25.35
80422;BMP280;69763;50.182;9.144;2023-07-22T07:18:48;100012.03;;;24.08
80422;BMP280;69763;50.182;9.144;2023-07-22T07:21:14;100008.97;;;23.49
80422;BMP280;69763;50.182;9.144;2023-07-22T07:23:40;100012.75;;;24.09
80422;BMP280;69763;50.182;9.144;2023-07-22T07:26:05;100015.31;;;25.04
80422;BMP280;69763;50.182;9.144;2023-07-22T07:28:30;100006.50;;;26.70
80422;BMP280;69763;50.182;9.144;2023-07-22T07:30:56;100000.25;;;29.17
80422;BMP280;69763;50.182;9.144;2023-07-22T07:33:21;100002.06;;;30.77
80422;BMP280;69763;50.182;9.144;2023-07-22T07:35:46;99998.94;;;32.14
80422;BMP280;69763;50.182;9.144;2023-07-22T07:38:13;99993.28;;;33.26
80422;BMP280;69763;50.182;9.144;2023-07-22T07:40:38;100003.41;;;33.55
80422;BMP280;69763;50.182;9.144;2023-07-22T07:43:03;100002.88;;;33.03
80422;BMP280;69763;50.182;9.144;2023-07-22T07:45:29;100002.47;;;32.67
80422;BMP280;69763;50.182;9.144;2023-07-22T07:47:54;99996.88;;;32.71
80422;BMP280;69763;50.182;9.144;2023-07-22T07:50:19;99998.44;;;32.84
80422;BMP280;69763;50.182;9.144;2023-07-22T07:52:45;99994.50;;;32.47
80422;BMP280;69763;50.182;9.144;2023-07-22T07:55:12;100000.50;;;32.79
80422;BMP280;69763;50.182;9.144;2023-07-22T07:57:37;100003.09;;;33.23
80422;BMP280;69763;50.182;9.144;2023-07-22T08:00:03;100002.63;;;33.49
80422;BMP280;69763;50.182;9.144;2023-07-22T08:02:29;100000.47;;;33.41
80422;BMP280;69763;50.182;9.144;2023-07-22T08:04:54;99998.69;;;33.82
80422;BMP280;69763;50.182;9.144;2023-07-22T08:07:20;99998.91;;;34.08
80422;BMP280;69763;50.182;9.144;2023-07-22T08:09:46;99992.56;;;34.06
80422;BMP280;69763;50.182;9.144;2023-07-22T08:12:13;99996.56;;;33.78
80422;BMP280;69763;50.182;9.144;2023-07-22T08:14:38;99999.13;;;33.48
80422;BMP280;69763;50.182;9.144;2023-07-22T08:17:03;99989.34;;;33.53
80422;BMP280;69763;50.182;9.144;2023-07-22T08:19:29;99993.13;;;33.08
80422;BMP280;69763;50.182;9.144;2023-07-22T08:21:54;99993.56;;;32.84
80422;BMP280;69763;50.182;9.144;2023-07-22T08:24:20;99997.75;;;32.29
80422;BMP280;69763;50.182;9.144;2023-07-22T08:26:45;99997.13;;;31.87
80422;BMP280;69763;50.182;9.144;2023-07-22T08:29:12;99999.72;;;30.99
80422;BMP280;69763;50.182;9.144;2023-07-22T08:31:37;99999.97;;;30.44
80422;BMP280;69763;50.182;9.144;2023-07-22T08:34:02;100003.84;;;29.48
80422;BMP280;69763;50.182;9.144;2023-07-22T08:36:28;99997.38;;;28.68
80422;BMP280;69763;50.182;9.144;2023-07-22T08:38:53;100000.19;;;28.92
80422;BMP280;69763;50.182;9.144;2023-07-22T08:41:19;100000.63;;;29.06
80422;BMP280;69763;50.182;9.144;2023-07-22T08:43:45;99996.53;;;28.63
80422;BMP280;69763;50.182;9.144;2023-07-22T08:46:12;100006.88;;;28.16
80422;BMP280;69763;50.182;9.144;2023-07-22T08:48:41;99991.59;;;28.17
80422;BMP280;69763;50.182;9.144;2023-07-22T08:51:10;99999.44;;;29.15
80422;BMP280;69763;50.182;9.144;2023-07-22T08:53:35;99993.53;;;30.08
80422;BMP280;69763;50.182;9.144;2023-07-22T08:56:01;99984.94;;;30.95
80422;BMP280;69763;50.182;9.144;2023-07-22T08:58:28;99988.97;;;31.59
80422;BMP280;69763;50.182;9.144;2023-07-22T09:00:54;99980.66;;;32.11
80422;BMP280;69763;50.182;9.144;2023-07-22T09:03:20;99981.63;;;32.86
80422;BMP280;69763;50.182;9.144;2023-07-22T09:05:46;99985.66;;;33.37
80422;BMP280;69763;50.182;9.144;2023-07-22T09:08:13;99974.94;;;33.15
80422;BMP280;69763;50.182;9.144;2023-07-22T09:10:38;99980.44;;;33.05
80422;BMP280;69763;50.182;9.144;2023-07-22T09:13:05;99973.69;;;33.34
80422;BMP280;69763;50.182;9.144;2023-07-22T09:15:35;99967.72;;;33.72
80422;BMP280;69763;50.182;9.144;2023-07-22T09:18:00;99981.19;;;33.91
80422;BMP280;69763;50.182;9.144;2023-07-22T09:20:27;99975.19;;;33.41
80422;BMP280;69763;50.182;9.144;2023-07-22T09:22:52;99981.59;;;32.82
80422;BMP280;69763;50.182;9.144;2023-07-22T09:25:19;99982.34;;;32.30
80422;BMP280;69763;50.182;9.144;2023-07-22T09:27:45;99976.53;;;31.70
80422;BMP280;69763;50.182;9.144;2023-07-22T09:30:24;99971.28;;;30.77
80422;BMP280;69763;50.182;9.144;2023-07-22T09:32:50;99973.75;;;30.29
80422;BMP280;69763;50.182;9.144;2023-07-22T09:35:17;99973.03;;;29.99
80422;BMP280;69763;50.182;9.144;2023-07-22T09:37:45;99972.41;;;28.96
80422;BMP280;69763;50.182;9.144;2023-07-22T09:40:14;99963.06;;;28.18
80422;BMP280;69763;50.182;9.144;2023-07-22T09:42:39;99967.94;;;27.96
80422;BMP280;69763;50.182;9.144;2023-07-22T09:45:06;99959.97;;;28.30
80422;BMP280;69763;50.182;9.144;2023-07-22T09:47:39;99968.69;;;28.87
80422;BMP280;69763;50.182;9.144;2023-07-22T09:50:06;99957.25;;;28.79
80422;BMP280;69763;50.182;9.144;2023-07-22T09:52:31;99959.22;;;28.98
80422;BMP280;69763;50.182;9.144;2023-07-22T09:54:59;99959.34;;;29.54
80422;BMP280;69763;50.182;9.144;2023-07-22T09:57:25;99954.59;;;29.58
80422;BMP280;69763;50.182;9.144;2023-07-22T09:59:52;99951.69;;;29.03
80422;BMP280;69763;50.182;9.144;2023-07-22T10:02:18;99952.94;;;28.29
80422;BMP280;69763;50.182;9.144;2023-07-22T10:04:46;99946.50;;;27.59
80422;BMP280;69763;50.182;9.144;2023-07-22T10:07:13;99943.13;;;27.04
80422;BMP280;69763;50.182;9.144;2023-07-22T10:09:40;99936.97;;;26.70
80422;BMP280;69763;50.182;9.144;2023-07-22T10:12:08;99943.38;;;26.37
80422;BMP280;69763;50.182;9.144;2023-07-22T10:14:37;99946.25;;;26.06
80422;BMP280;69763;50.182;9.144;2023-07-22T10:17:04;99949.06;;;25.90
80422;BMP280;69763;50.182;9.144;2023-07-22T10:19:30;99954.31;;;25.66
80422;BMP280;69763;50.182;9.144;2023-07-22T10:21:56;99946.63;;;25.49
80422;BMP280;69763;50.182;9.144;2023-07-22T10:24:21;99946.63;;;25.49
80422;BMP280;69763;50.182;9.144;2023-07-22T10:26:47;99940.00;;;25.56
80422;BMP280;69763;50.182;9.144;2023-07-22T10:29:14;99934.81;;;25.64
80422;BMP280;69763;50.182;9.144;2023-07-22T10:31:39;99942.66;;;25.86
80422;BMP280;69763;50.182;9.144;2023-07-22T10:34:05;99937.53;;;26.13
80422;BMP280;69763;50.182;9.144;2023-07-22T10:36:30;99925.97;;;26.37
80422;BMP280;69763;50.182;9.144;2023-07-22T10:38:56;99928.25;;;26.60
80422;BMP280;69763;50.182;9.144;2023-07-22T10:41:21;99932.78;;;26.87
80422;BMP280;69763;50.182;9.144;2023-07-22T10:43:53;99934.91;;;27.08
80422;BMP280;69763;50.182;9.144;2023-07-22T10:46:31;99933.72;;;27.13
80422;BMP280;69763;50.182;9.144;2023-07-22T10:49:06;99934.69;;;27.02
80422;BMP280;69763;50.182;9.144;2023-07-22T10:51:35;99930.16;;;27.30
80422;BMP280;69763;50.182;9.144;2023-07-22T10:54:01;99929.38;;;27.88
80422;BMP280;69763;50.182;9.144;2023-07-22T10:56:26;99918.00;;;28.26
80422;BMP280;69763;50.182;9.144;2023-07-22T10:58:56;99927.13;;;28.50
80422;BMP280;69763;50.182;9.144;2023-07-22T11:01:24;99913.19;;;28.50
80422;BMP280;69763;50.182;9.144;2023-07-22T11:04:10;99919.94;;;28.43
80422;BMP280;69763;50.182;9.144;2023-07-22T11:06:37;99918.31;;;28.59
80422;BMP280;69763;50.182;9.144;2023-07-22T11:09:02;99910.91;;;28.68
80422;BMP280;69763;50.182;9.144;2023-07-22T11:11:37;99921.91;;;28.62
80422;BMP280;69763;50.182;9.144;2023-07-22T11:14:15;99910.16;;;28.65
80422;BMP280;69763;50.182;9.144;2023-07-22T11:16:45;99912.06;;;28.59
80422;BMP280;69763;50.182;9.144;2023-07-22T11:19:12;99908.75;;;28.41
80422;BMP280;69763;50.182;9.144;2023-07-22T11:21:37;99911.09;;;28.27
80422;BMP280;69763;50.182;9.144;2023-07-22T11:24:02;99914.56;;;28.49
80422;BMP280;69763;50.182;9.144;2023-07-22T11:26:28;99898.03;;;28.57
80422;BMP280;69763;50.182;9.144;2023-07-22T11:28:53;99909.72;;;28.28
80422;BMP280;69763;50.182;9.144;2023-07-22T11:31:18;99893.66;;;27.61
80422;BMP280;69763;50.182;9.144;2023-07-22T11:33:45;99899.41;;;27.06
80422;BMP280;69763;50.182;9.144;2023-07-22T11:36:10;99888.59;;;26.77
80422;BMP280;69763;50.182;9.144;2023-07-22T11:38:36;99884.72;;;26.66
80422;BMP280;69763;50.182;9.144;2023-07-22T11:41:01;99879.84;;;26.84
80422;BMP280;69763;50.182;9.144;2023-07-22T11:43:27;99874.72;;;27.16
80422;BMP280;69763;50.182;9.144;2023-07-22T11:45:52;99869.88;;;27.58
80422;BMP280;69763;50.182;9.144;2023-07-22T11:48:18;99875.28;;;27.74
80422;BMP280;69763;50.182;9.144;2023-07-22T11:50:44;99874.84;;;27.81
80422;BMP280;69763;50.182;9.144;2023-07-22T11:53:10;99876.38;;;27.86
80422;BMP280;69763;50.182;9.144;2023-07-22T11:55:35;99872.00;;;27.79
80422;BMP280;69763;50.182;9.144;2023-07-22T11:58:01;99866.94;;;27.74
80422;BMP280;69763;50.182;9.144;2023-07-22T12:00:27;99866.16;;;27.93
80422;BMP280;69763;50.182;9.144;2023-07-22T12:02:52;99865.47;;;28.16
80422;BMP280;69763;50.182;9.144;2023-07-22T12:05:21;99860.84;;;28.01
80422;BMP280;69763;50.182;9.144;2023-07-22T12:07:47;99856.78;;;28.06
80422;BMP280;69763;50.182;9.144;2023-07-22T12:10:15;99853.03;;;28.19
80422;BMP280;69763;50.182;9.144;2023-07-22T12:12:42;99856.97;;;28.34
80422;BMP280;69763;50.182;9.144;2023-07-22T12:15:09;99842.81;;;28.75
80422;BMP280;69763;50.182;9.144;2023-07-22T12:17:46;99846.81;;;28.94
80422;BMP280;69763;50.182;9.144;2023-07-22T12:20:12;99851.63;;;29.19
80422;BMP280;69763;50.182;9.144;2023-07-22T12:22:38;99843.16;;;29.43
80422;BMP280;69763;50.182;9.144;2023-07-22T12:25:05;99837.38;;;29.64
80422;BMP280;69763;50.182;9.144;2023-07-22T12:27:31;99835.66;;;29.79
80422;BMP280;69763;50.182;9.144;2023-07-22T12:29:56;99828.84;;;29.56
80422;BMP280;69763;50.182;9.144;2023-07-22T12:32:22;99833.13;;;29.32
80422;BMP280;69763;50.182;9.144;2023-07-22T12:34:47;99833.78;;;29.02
80422;BMP280;69763;50.182;9.144;2023-07-22T12:37:12;99829.56;;;28.76
80422;BMP280;69763;50.182;9.144;2023-07-22T12:39:38;99831.91;;;28.85
80422;BMP280;69763;50.182;9.144;2023-07-22T12:42:05;99835.84;;;29.02
80422;BMP280;69763;50.182;9.144;2023-07-22T12:44:30;99830.47;;;29.38
80422;BMP280;69763;50.182;9.144;2023-07-22T12:46:55;99825.81;;;29.76
80422;BMP280;69763;50.182;9.144;2023-07-22T12:49:21;99820.25;;;29.78
80422;BMP280;69763;50.182;9.144;2023-07-22T12:51:46;99817.59;;;29.84
80422;BMP280;69763;50.182;9.144;2023-07-22T12:54:11;99807.72;;;29.79
80422;BMP280;69763;50.182;9.144;2023-07-22T12:56:37;99812.13;;;29.88
80422;BMP280;69763;50.182;9.144;2023-07-22T12:59:03;99817.72;;;30.22
80422;BMP280;69763;50.182;9.144;2023-07-22T13:01:29;99810.75;;;30.57
80422;BMP280;69763;50.182;9.144;2023-07-22T13:03:54;99806.91;;;30.40
80422;BMP280;69763;50.182;9.144;2023-07-22T13:06:19;99813.97;;;29.77
80422;BMP280;69763;50.182;9.144;2023-07-22T13:08:44;99811.06;;;29.42
80422;BMP280;69763;50.182;9.144;2023-07-22T13:11:10;99804.91;;;29.47
80422;BMP280;69763;50.182;9.144;2023-07-22T13:13:35;99807.03;;;29.49
80422;BMP280;69763;50.182;9.144;2023-07-22T13:16:02;99805.03;;;29.53
80422;BMP280;69763;50.182;9.144;2023-07-22T13:18:27;99808.38;;;29.77
80422;BMP280;69763;50.182;9.144;2023-07-22T13:20:52;99798.09;;;29.86
80422;BMP280;69763;50.182;9.144;2023-07-22T13:23:18;99777.00;;;29.79
80422;BMP280;69763;50.182;9.144;2023-07-22T13:25:43;99787.84;;;29.35
80422;BMP280;69763;50.182;9.144;2023-07-22T13:28:08;99771.69;;;29.32
80422;BMP280;69763;50.182;9.144;2023-07-22T13:30:34;99790.00;;;29.09
80422;BMP280;69763;50.182;9.144;2023-07-22T13:33:00;99793.34;;;29.03
80422;BMP280;69763;50.182;9.144;2023-07-22T13:35:26;99789.91;;;29.05
80422;BMP280;69763;50.182;9.144;2023-07-22T13:37:51;99793.44;;;29.07
80422;BMP280;69763;50.182;9.144;2023-07-22T13:40:16;99786.66;;;28.87
80422;BMP280;69763;50.182;9.144;2023-07-22T13:42:42;99787.16;;;28.53
80422;BMP280;69763;50.182;9.144;2023-07-22T13:45:07;99787.97;;;28.34
80422;BMP280;69763;50.182;9.144;2023-07-22T13:47:33;99782.41;;;28.34
80422;BMP280;69763;50.182;9.144;2023-07-22T13:50:00;99782.66;;;28.42
80422;BMP280;69763;50.182;9.144;2023-07-22T13:52:25;99779.56;;;28.32
80422;BMP280;69763;50.182;9.144;2023-07-22T13:54:50;99779.09;;;28.16
80422;BMP280;69763;50.182;9.144;2023-07-22T13:57:16;99762.97;;;28.13
80422;BMP280;69763;50.182;9.144;2023-07-22T13:59:41;99778.56;;;27.98
80422;BMP280;69763;50.182;9.144;2023-07-22T14:02:06;99766.22;;;28.05